Skip to main content.
Our real time weather data display below is updated continuously via our 24/7 live data feed.
 TIME   TEMPERATURE   WINDSPEED   DIRECTION   HUMIDITY   BAROMETER   RAINFALL 
4:05 24.9°C (76.8°F) 0.0 kmh (0.0 mph) ENE 86% 1015.8hPa (30.00 inHg) 0.0mm (0.00 in.)
3:05 24.9°C (76.8 °F) 0.0 kmh (0.0 mph) ENE 86% 1016.1hPa (30.01 inHg) 0.0mm (0.00 in.)
2:05 24.9°C (76.8 °F) 0.0 kmh (0.0 mph) ENE 85% 1016.8hPa (30.03 inHg) 0.0mm (0.00 in.)
1:05 25.1°C (77.2 °F) 0.0 kmh (0.0 mph) ENE 84% 1017.2hPa (30.04 inHg) 0.0mm (0.00 in.)
12:05 25.3°C (77.5 °F) 0.0 kmh (0.0 mph) ENE 83% 1017.5hPa (30.05 inHg) 0.0mm (0.00 in.)
11:05 25.4°C (77.7 °F) 0.0 kmh (0.0 mph) ENE 82% 1017.8hPa (30.06 inHg) 0.0mm (0.00 in.)
10:05 25.5°C (77.9 °F) 0.0 kmh (0.0 mph) ENE 81% 1017.8hPa (30.06 inHg) 0.0mm (0.00 in.)
9:05 25.8°C (78.4 °F) 0.0 kmh (0.0 mph) ENE 80% 1017.7hPa (30.05 inHg) 0.0mm (0.00 in.)
8:05 26.1°C (79.0 °F) 0.0 kmh (0.0 mph) ENE 79% 1017.5hPa (30.05 inHg) 0.0mm (0.00 in.)
7:05 26.6°C (79.9 °F) 1.9 kmh (1.2 mph) ENE 75% 1017.4hPa (30.04 inHg) 0.0mm (0.00 in.)
6:05 27.8°C (82.0 °F) 7.4 kmh (4.6 mph) SE 64% 1017.6hPa (30.05 inHg) 0.0mm (0.00 in.)
5:05 29.3°C (84.7 °F) 1.9 kmh (1.2 mph) SW 62% 1017.5hPa (30.05 inHg) 0.0mm (0.00 in.)
4:44 29.8°C (85.6 °F) 0.0 kmh (0.0 mph) N 63% 1017.4hPa (30.04 inHg) 0.0mm (0.00 in.)
3:03 30.3°C (86.5 °F) 5.6 kmh (3.5 mph) N 58% 1017.8hPa (30.06 inHg) 0.0mm (0.00 in.)
2:03 30.3°C (86.5 °F) 1.9 kmh (1.2 mph) N 58% 1018.2hPa (30.07 inHg) 0.0mm (0.00 in.)
1:03 30.8°C (87.4 °F) 9.3 kmh (5.8 mph) N 58% 1018.7hPa (30.08 inHg) 0.0mm (0.00 in.)
12:03 29.7°C (85.5 °F) 3.7 kmh (2.3 mph) N 60% 1018.8hPa (30.09 inHg) 0.0mm (0.00 in.)
11:03 29.1°C (84.4 °F) 5.6 kmh (3.5 mph) N 60% 1018.6hPa (30.08 inHg) 0.0mm (0.00 in.)
10:03 29.3°C (84.7 °F) 0.0 kmh (0.0 mph) N 63% 1018.3hPa (30.07 inHg) 0.0mm (0.00 in.)
9:03 27.3°C (81.1 °F) 0.0 kmh (0.0 mph) N 71% 1018.0hPa (30.06 inHg) 0.0mm (0.00 in.)
8:03 26.8°C (80.2 °F) 0.0 kmh (0.0 mph) N 75% 1017.4hPa (30.04 inHg) 0.0mm (0.00 in.)
7:03 23.9°C (75.0 °F) 0.0 kmh (0.0 mph) N 86% 1016.9hPa (30.03 inHg) 0.0mm (0.00 in.)
6:03 24.1°C (75.4 °F) 0.0 kmh (0.0 mph) N 84% 1016.7hPa (30.02 inHg) 0.0mm (0.00 in.)
5:03 24.4°C (75.9 °F) 0.0 kmh (0.0 mph) N 86% 1016.6hPa (30.02 inHg) 0.0mm (0.00 in.)